Portada
METAR-TAF:

METAR-TAF

Aeroports :

Perth, Austràlia

latitud: 31-56S, longitud: 115-57E, altitud: 20 m

Observació

L'informe es va fer fa 32 minuts, a les 07:30 UTC
Vent 11 kt del Oest/Sud-Oest
Temperatura 19°C
Humitat 49%
Pressió 1021 hPa
Visibilitat 10 km o més
Núvols disperses a una alçada de 4500 ft

METAR: YPPH 250730Z 24011KT 9999 SCT045 19/08 Q1021 NOSIG

Hora: 16:02 (08:02 UTC)

Pronòstic

L'informe es va fer fa 3 hores i 1 minuts, a les 05:01 UTC
Pronòstic vàlid del 25 a les 06 UTC al 26 a les 12 UTC
Vent 12 kt del Sud/Sud-Oest
Visibilitat 10 km o més
Escasses núvols a una alçada de 4000 ft
A partir de les 25 a les 1800 UTC
Vent 5 kt del Sud/Sud-Est
Visibilitat 10 km o més
Escasses núvols a una alçada de 3500 ft
A partir de les 26 a les 0500 UTC
Vent 12 kt del Sud/Sud-Oest
Visibilitat 10 km o més
sense núvols per sota de 1500 mi sense presència de cumulonimbus.

TAF: YPPH 250501Z 2506/2612 21012KT 9999 FEW040 FM251800 16005KT 9999 FEW035 FM260500 21012KT CAVOK

Observacions i pronòstics meteorològics de més de 4000 aeroports (METAR i TAF).

Les estacions disponibles són els punts grocs i vermells al mapa.

Posi el ratolí al punt desitjat per veure el nom de l'estació.

Feu clic per veure les observacions i els pronòstics meteorològics.

Per canviar el mapa: feu clic els botons verds amb una creu de color negre per apropar; al botó verd amb un guió per allunyar la imatge; o en les fletxes verdes per a mapes adjacents.


METAR-TAF: